sensor_id;sensor_type;location;lat;lon;timestamp;P1;durP1;ratioP1;P2;durP2;ratioP2
32321;SDS011;61553;48.994;8.940;2022-12-05T00:00:33;34.60;;;13.55;;
32321;SDS011;61553;48.994;8.940;2022-12-05T00:03:02;33.70;;;12.90;;
32321;SDS011;61553;48.994;8.940;2022-12-05T00:05:29;30.35;;;13.82;;
32321;SDS011;61553;48.994;8.940;2022-12-05T00:07:55;29.45;;;11.70;;
32321;SDS011;61553;48.994;8.940;2022-12-05T00:10:21;30.83;;;12.85;;
32321;SDS011;61553;48.994;8.940;2022-12-05T00:12:47;39.90;;;17.13;;
32321;SDS011;61553;48.994;8.940;2022-12-05T00:15:12;43.88;;;20.73;;
32321;SDS011;61553;48.994;8.940;2022-12-05T00:17:38;62.30;;;26.38;;
32321;SDS011;61553;48.994;8.940;2022-12-05T00:20:05;43.13;;;19.38;;
32321;SDS011;61553;48.994;8.940;2022-12-05T00:22:33;34.88;;;16.40;;
32321;SDS011;61553;48.994;8.940;2022-12-05T00:25:03;37.40;;;15.80;;
32321;SDS011;61553;48.994;8.940;2022-12-05T00:27:30;35.60;;;15.10;;
32321;SDS011;61553;48.994;8.940;2022-12-05T00:29:56;32.70;;;14.57;;
32321;SDS011;61553;48.994;8.940;2022-12-05T00:32:21;38.63;;;15.80;;
32321;SDS011;61553;48.994;8.940;2022-12-05T00:34:47;33.25;;;14.10;;
32321;SDS011;61553;48.994;8.940;2022-12-05T00:37:13;32.42;;;13.75;;
32321;SDS011;61553;48.994;8.940;2022-12-05T00:39:38;33.90;;;13.32;;
32321;SDS011;61553;48.994;8.940;2022-12-05T00:42:04;34.58;;;14.27;;
32321;SDS011;61553;48.994;8.940;2022-12-05T00:44:29;38.80;;;14.80;;
32321;SDS011;61553;48.994;8.940;2022-12-05T00:46:56;40.17;;;14.63;;
32321;SDS011;61553;48.994;8.940;2022-12-05T00:49:21;36.47;;;14.95;;
32321;SDS011;61553;48.994;8.940;2022-12-05T00:51:47;36.33;;;15.98;;
32321;SDS011;61553;48.994;8.940;2022-12-05T00:54:13;35.22;;;13.77;;
32321;SDS011;61553;48.994;8.940;2022-12-05T00:56:40;34.53;;;13.60;;
32321;SDS011;61553;48.994;8.940;2022-12-05T00:59:07;31.85;;;14.00;;
32321;SDS011;61553;48.994;8.940;2022-12-05T01:01:37;37.72;;;15.50;;
32321;SDS011;61553;48.994;8.940;2022-12-05T01:04:14;35.53;;;14.60;;
32321;SDS011;61553;48.994;8.940;2022-12-05T01:06:42;37.35;;;13.77;;
32321;SDS011;61553;48.994;8.940;2022-12-05T01:09:09;32.97;;;13.82;;
32321;SDS011;61553;48.994;8.940;2022-12-05T01:11:37;41.22;;;15.07;;
32321;SDS011;61553;48.994;8.940;2022-12-05T01:14:02;33.13;;;14.32;;
32321;SDS011;61553;48.994;8.940;2022-12-05T01:16:30;35.20;;;13.93;;
32321;SDS011;61553;48.994;8.940;2022-12-05T01:18:58;38.00;;;14.48;;
32321;SDS011;61553;48.994;8.940;2022-12-05T01:21:27;38.50;;;17.13;;
32321;SDS011;61553;48.994;8.940;2022-12-05T01:23:53;34.60;;;15.23;;
32321;SDS011;61553;48.994;8.940;2022-12-05T01:26:19;33.10;;;14.77;;
32321;SDS011;61553;48.994;8.940;2022-12-05T01:28:46;35.28;;;15.15;;
32321;SDS011;61553;48.994;8.940;2022-12-05T01:31:22;36.72;;;15.57;;
32321;SDS011;61553;48.994;8.940;2022-12-05T01:33:52;32.17;;;13.25;;
32321;SDS011;61553;48.994;8.940;2022-12-05T01:36:19;29.35;;;14.30;;
32321;SDS011;61553;48.994;8.940;2022-12-05T01:38:45;31.95;;;14.13;;
32321;SDS011;61553;48.994;8.940;2022-12-05T01:41:13;30.85;;;15.25;;
32321;SDS011;61553;48.994;8.940;2022-12-05T01:46:18;31.67;;;13.40;;
32321;SDS011;61553;48.994;8.940;2022-12-05T01:48:43;28.73;;;12.73;;
32321;SDS011;61553;48.994;8.940;2022-12-05T01:51:09;32.55;;;14.98;;
32321;SDS011;61553;48.994;8.940;2022-12-05T01:53:35;28.85;;;12.50;;
32321;SDS011;61553;48.994;8.940;2022-12-05T01:56:02;27.23;;;13.40;;
32321;SDS011;61553;48.994;8.940;2022-12-05T01:58:29;30.52;;;14.70;;
32321;SDS011;61553;48.994;8.940;2022-12-05T02:00:59;32.13;;;15.05;;
32321;SDS011;61553;48.994;8.940;2022-12-05T02:03:25;29.02;;;12.88;;
32321;SDS011;61553;48.994;8.940;2022-12-05T02:05:51;28.05;;;12.90;;
32321;SDS011;61553;48.994;8.940;2022-12-05T02:08:19;34.88;;;14.40;;
32321;SDS011;61553;48.994;8.940;2022-12-05T02:10:47;30.67;;;14.20;;
32321;SDS011;61553;48.994;8.940;2022-12-05T02:13:33;32.97;;;14.20;;
32321;SDS011;61553;48.994;8.940;2022-12-05T02:16:05;32.15;;;13.80;;
32321;SDS011;61553;48.994;8.940;2022-12-05T02:18:37;29.25;;;13.50;;
32321;SDS011;61553;48.994;8.940;2022-12-05T02:36:39;33.33;;;14.52;;
32321;SDS011;61553;48.994;8.940;2022-12-05T02:41:49;29.92;;;13.93;;
32321;SDS011;61553;48.994;8.940;2022-12-05T02:44:21;29.00;;;14.15;;
32321;SDS011;61553;48.994;8.940;2022-12-05T02:46:56;28.67;;;14.05;;
32321;SDS011;61553;48.994;8.940;2022-12-05T02:49:25;30.27;;;13.40;;
32321;SDS011;61553;48.994;8.940;2022-12-05T02:51:56;25.02;;;12.57;;
32321;SDS011;61553;48.994;8.940;2022-12-05T02:54:25;30.08;;;13.27;;
32321;SDS011;61553;48.994;8.940;2022-12-05T02:56:53;30.95;;;13.80;;
32321;SDS011;61553;48.994;8.940;2022-12-05T02:59:22;28.45;;;14.23;;
32321;SDS011;61553;48.994;8.940;2022-12-05T03:01:47;28.08;;;13.70;;
32321;SDS011;61553;48.994;8.940;2022-12-05T03:04:13;27.50;;;13.25;;
32321;SDS011;61553;48.994;8.940;2022-12-05T03:06:42;25.33;;;12.70;;
32321;SDS011;61553;48.994;8.940;2022-12-05T03:09:22;27.02;;;13.20;;
32321;SDS011;61553;48.994;8.940;2022-12-05T03:11:59;28.08;;;12.38;;
32321;SDS011;61553;48.994;8.940;2022-12-05T03:14:37;28.02;;;12.65;;
32321;SDS011;61553;48.994;8.940;2022-12-05T03:17:18;22.98;;;11.68;;
32321;SDS011;61553;48.994;8.940;2022-12-05T03:19:52;25.17;;;12.25;;
32321;SDS011;61553;48.994;8.940;2022-12-05T03:22:26;25.42;;;11.63;;
32321;SDS011;61553;48.994;8.940;2022-12-05T03:24:58;23.85;;;11.88;;
32321;SDS011;61553;48.994;8.940;2022-12-05T03:37:43;27.55;;;13.70;;
32321;SDS011;61553;48.994;8.940;2022-12-05T03:40:39;27.73;;;13.50;;
32321;SDS011;61553;48.994;8.940;2022-12-05T03:43:17;24.70;;;12.93;;
32321;SDS011;61553;48.994;8.940;2022-12-05T03:46:03;27.30;;;13.77;;
32321;SDS011;61553;48.994;8.940;2022-12-05T03:48:30;25.75;;;13.38;;
32321;SDS011;61553;48.994;8.940;2022-12-05T03:51:05;22.58;;;12.98;;
32321;SDS011;61553;48.994;8.940;2022-12-05T03:53:34;26.67;;;13.43;;
32321;SDS011;61553;48.994;8.940;2022-12-05T03:56:27;22.50;;;11.38;;
32321;SDS011;61553;48.994;8.940;2022-12-05T03:59:04;23.77;;;12.05;;
32321;SDS011;61553;48.994;8.940;2022-12-05T04:01:43;24.95;;;12.75;;
32321;SDS011;61553;48.994;8.940;2022-12-05T04:04:13;23.85;;;12.57;;
32321;SDS011;61553;48.994;8.940;2022-12-05T04:06:47;23.90;;;11.90;;
32321;SDS011;61553;48.994;8.940;2022-12-05T04:09:18;24.52;;;11.48;;
32321;SDS011;61553;48.994;8.940;2022-12-05T04:11:52;23.60;;;12.00;;
32321;SDS011;61553;48.994;8.940;2022-12-05T04:14:30;25.25;;;12.45;;
32321;SDS011;61553;48.994;8.940;2022-12-05T04:17:03;23.70;;;12.40;;
32321;SDS011;61553;48.994;8.940;2022-12-05T04:22:30;23.50;;;12.23;;
32321;SDS011;61553;48.994;8.940;2022-12-05T04:24:57;25.58;;;12.43;;
32321;SDS011;61553;48.994;8.940;2022-12-05T04:27:58;27.95;;;12.98;;
32321;SDS011;61553;48.994;8.940;2022-12-05T04:30:33;28.25;;;12.52;;
32321;SDS011;61553;48.994;8.940;2022-12-05T04:33:10;22.98;;;10.52;;
32321;SDS011;61553;48.994;8.940;2022-12-05T04:35:44;21.63;;;11.77;;
32321;SDS011;61553;48.994;8.940;2022-12-05T04:38:32;25.50;;;12.00;;
32321;SDS011;61553;48.994;8.940;2022-12-05T04:41:23;24.48;;;11.60;;
32321;SDS011;61553;48.994;8.940;2022-12-05T04:44:01;21.33;;;11.18;;
32321;SDS011;61553;48.994;8.940;2022-12-05T04:46:35;24.10;;;10.90;;
32321;SDS011;61553;48.994;8.940;2022-12-05T04:49:04;23.13;;;11.23;;
32321;SDS011;61553;48.994;8.940;2022-12-05T04:51:33;23.80;;;12.95;;
32321;SDS011;61553;48.994;8.940;2022-12-05T04:54:01;30.38;;;16.42;;
32321;SDS011;61553;48.994;8.940;2022-12-05T04:56:33;28.63;;;12.75;;
32321;SDS011;61553;48.994;8.940;2022-12-05T04:59:02;22.33;;;11.38;;
32321;SDS011;61553;48.994;8.940;2022-12-05T05:01:38;24.98;;;12.15;;
32321;SDS011;61553;48.994;8.940;2022-12-05T05:04:14;23.80;;;13.30;;
32321;SDS011;61553;48.994;8.940;2022-12-05T05:06:45;24.95;;;12.10;;
32321;SDS011;61553;48.994;8.940;2022-12-05T05:09:10;28.20;;;13.10;;
32321;SDS011;61553;48.994;8.940;2022-12-05T05:11:36;24.92;;;13.25;;
32321;SDS011;61553;48.994;8.940;2022-12-05T05:14:02;30.25;;;13.73;;
32321;SDS011;61553;48.994;8.940;2022-12-05T05:16:30;22.65;;;12.25;;
32321;SDS011;61553;48.994;8.940;2022-12-05T05:19:01;23.58;;;12.25;;
32321;SDS011;61553;48.994;8.940;2022-12-05T05:21:28;25.98;;;12.52;;
32321;SDS011;61553;48.994;8.940;2022-12-05T05:23:55;22.83;;;11.68;;
32321;SDS011;61553;48.994;8.940;2022-12-05T05:26:22;22.42;;;11.40;;
32321;SDS011;61553;48.994;8.940;2022-12-05T05:28:48;24.00;;;12.48;;
32321;SDS011;61553;48.994;8.940;2022-12-05T05:31:15;22.42;;;12.02;;
32321;SDS011;61553;48.994;8.940;2022-12-05T05:33:42;22.85;;;10.90;;
32321;SDS011;61553;48.994;8.940;2022-12-05T05:36:09;22.27;;;10.85;;
32321;SDS011;61553;48.994;8.940;2022-12-05T05:38:38;23.58;;;11.20;;
32321;SDS011;61553;48.994;8.940;2022-12-05T05:41:05;26.23;;;13.95;;
32321;SDS011;61553;48.994;8.940;2022-12-05T05:43:41;24.75;;;12.45;;
32321;SDS011;61553;48.994;8.940;2022-12-05T05:46:07;22.77;;;11.27;;
32321;SDS011;61553;48.994;8.940;2022-12-05T05:48:33;22.60;;;11.43;;
32321;SDS011;61553;48.994;8.940;2022-12-05T05:51:02;25.40;;;12.13;;
32321;SDS011;61553;48.994;8.940;2022-12-05T05:53:29;23.70;;;12.32;;
32321;SDS011;61553;48.994;8.940;2022-12-05T05:55:55;25.83;;;14.32;;
32321;SDS011;61553;48.994;8.940;2022-12-05T05:58:21;23.13;;;12.05;;
32321;SDS011;61553;48.994;8.940;2022-12-05T06:00:47;23.60;;;12.23;;
32321;SDS011;61553;48.994;8.940;2022-12-05T06:03:13;24.00;;;11.13;;
32321;SDS011;61553;48.994;8.940;2022-12-05T06:05:38;23.90;;;12.52;;
32321;SDS011;61553;48.994;8.940;2022-12-05T06:08:04;24.90;;;11.85;;
32321;SDS011;61553;48.994;8.940;2022-12-05T06:10:30;20.17;;;10.43;;
32321;SDS011;61553;48.994;8.940;2022-12-05T06:12:56;22.63;;;11.75;;
32321;SDS011;61553;48.994;8.940;2022-12-05T06:15:22;20.00;;;10.85;;
32321;SDS011;61553;48.994;8.940;2022-12-05T06:17:48;25.75;;;12.55;;
32321;SDS011;61553;48.994;8.940;2022-12-05T06:20:14;23.10;;;11.38;;
32321;SDS011;61553;48.994;8.940;2022-12-05T06:22:39;28.33;;;11.30;;
32321;SDS011;61553;48.994;8.940;2022-12-05T06:25:05;31.10;;;14.77;;
32321;SDS011;61553;48.994;8.940;2022-12-05T06:27:32;27.73;;;13.07;;
32321;SDS011;61553;48.994;8.940;2022-12-05T06:29:57;24.70;;;11.40;;
32321;SDS011;61553;48.994;8.940;2022-12-05T06:32:23;22.13;;;11.38;;
32321;SDS011;61553;48.994;8.940;2022-12-05T06:34:49;85.40;;;34.08;;
32321;SDS011;61553;48.994;8.940;2022-12-05T06:37:15;31.45;;;14.73;;
32321;SDS011;61553;48.994;8.940;2022-12-05T06:39:40;30.40;;;14.55;;
32321;SDS011;61553;48.994;8.940;2022-12-05T06:42:06;28.83;;;14.80;;
32321;SDS011;61553;48.994;8.940;2022-12-05T06:44:32;28.55;;;14.38;;
32321;SDS011;61553;48.994;8.940;2022-12-05T06:46:57;27.73;;;14.05;;
32321;SDS011;61553;48.994;8.940;2022-12-05T06:49:23;26.00;;;12.63;;
32321;SDS011;61553;48.994;8.940;2022-12-05T06:51:54;28.17;;;14.63;;
32321;SDS011;61553;48.994;8.940;2022-12-05T06:54:19;68.13;;;29.30;;
32321;SDS011;61553;48.994;8.940;2022-12-05T06:56:45;43.30;;;21.92;;
32321;SDS011;61553;48.994;8.940;2022-12-05T06:59:11;28.63;;;15.07;;
32321;SDS011;61553;48.994;8.940;2022-12-05T07:01:36;22.85;;;12.98;;
32321;SDS011;61553;48.994;8.940;2022-12-05T07:04:03;28.33;;;13.40;;
32321;SDS011;61553;48.994;8.940;2022-12-05T07:06:30;29.73;;;13.25;;
32321;SDS011;61553;48.994;8.940;2022-12-05T07:08:57;24.77;;;12.27;;
32321;SDS011;61553;48.994;8.940;2022-12-05T07:11:23;25.90;;;13.57;;
32321;SDS011;61553;48.994;8.940;2022-12-05T07:13:49;30.10;;;13.57;;
32321;SDS011;61553;48.994;8.940;2022-12-05T07:16:14;27.50;;;13.65;;
32321;SDS011;61553;48.994;8.940;2022-12-05T07:18:40;25.15;;;12.82;;
32321;SDS011;61553;48.994;8.940;2022-12-05T07:21:07;26.70;;;13.38;;
32321;SDS011;61553;48.994;8.940;2022-12-05T07:23:35;24.25;;;13.25;;
32321;SDS011;61553;48.994;8.940;2022-12-05T07:26:05;25.65;;;11.95;;
32321;SDS011;61553;48.994;8.940;2022-12-05T07:28:32;25.13;;;11.70;;
32321;SDS011;61553;48.994;8.940;2022-12-05T07:30:58;25.00;;;12.25;;
32321;SDS011;61553;48.994;8.940;2022-12-05T07:33:32;26.15;;;12.75;;
32321;SDS011;61553;48.994;8.940;2022-12-05T07:36:00;25.85;;;11.80;;
32321;SDS011;61553;48.994;8.940;2022-12-05T07:38:27;23.67;;;12.57;;
32321;SDS011;61553;48.994;8.940;2022-12-05T07:40:54;24.50;;;12.70;;
32321;SDS011;61553;48.994;8.940;2022-12-05T07:43:19;28.73;;;14.40;;
32321;SDS011;61553;48.994;8.940;2022-12-05T07:45:45;29.98;;;14.68;;
32321;SDS011;61553;48.994;8.940;2022-12-05T07:48:11;27.08;;;13.00;;
32321;SDS011;61553;48.994;8.940;2022-12-05T07:50:36;33.03;;;13.82;;
32321;SDS011;61553;48.994;8.940;2022-12-05T07:53:02;27.33;;;13.13;;
32321;SDS011;61553;48.994;8.940;2022-12-05T07:55:28;26.15;;;13.05;;
32321;SDS011;61553;48.994;8.940;2022-12-05T07:57:53;33.92;;;16.17;;
32321;SDS011;61553;48.994;8.940;2022-12-05T08:00:19;32.65;;;17.30;;
32321;SDS011;61553;48.994;8.940;2022-12-05T08:02:45;34.13;;;18.23;;
32321;SDS011;61553;48.994;8.940;2022-12-05T08:05:11;32.83;;;16.88;;
32321;SDS011;61553;48.994;8.940;2022-12-05T08:07:37;32.13;;;16.33;;
32321;SDS011;61553;48.994;8.940;2022-12-05T08:10:03;30.85;;;15.77;;
32321;SDS011;61553;48.994;8.940;2022-12-05T08:12:30;28.92;;;14.32;;
32321;SDS011;61553;48.994;8.940;2022-12-05T08:14:56;31.30;;;14.95;;
32321;SDS011;61553;48.994;8.940;2022-12-05T08:17:22;32.83;;;16.15;;
32321;SDS011;61553;48.994;8.940;2022-12-05T08:19:47;32.17;;;16.23;;
32321;SDS011;61553;48.994;8.940;2022-12-05T08:22:13;30.90;;;16.17;;
32321;SDS011;61553;48.994;8.940;2022-12-05T08:24:38;72.43;;;39.53;;
32321;SDS011;61553;48.994;8.940;2022-12-05T08:27:05;55.08;;;32.90;;
32321;SDS011;61553;48.994;8.940;2022-12-05T08:29:31;35.17;;;18.40;;
32321;SDS011;61553;48.994;8.940;2022-12-05T08:31:56;36.60;;;18.70;;
32321;SDS011;61553;48.994;8.940;2022-12-05T08:34:22;25.98;;;13.85;;
32321;SDS011;61553;48.994;8.940;2022-12-05T08:36:48;26.95;;;12.32;;
32321;SDS011;61553;48.994;8.940;2022-12-05T08:39:15;24.63;;;12.07;;
32321;SDS011;61553;48.994;8.940;2022-12-05T08:41:43;27.88;;;15.80;;
32321;SDS011;61553;48.994;8.940;2022-12-05T08:44:10;25.85;;;15.68;;
32321;SDS011;61553;48.994;8.940;2022-12-05T08:46:40;26.42;;;14.80;;
32321;SDS011;61553;48.994;8.940;2022-12-05T08:49:07;28.25;;;13.63;;
32321;SDS011;61553;48.994;8.940;2022-12-05T08:51:33;25.65;;;13.02;;
32321;SDS011;61553;48.994;8.940;2022-12-05T08:54:05;24.77;;;13.15;;
32321;SDS011;61553;48.994;8.940;2022-12-05T08:56:30;36.17;;;16.88;;
32321;SDS011;61553;48.994;8.940;2022-12-05T08:58:59;34.72;;;18.55;;
32321;SDS011;61553;48.994;8.940;2022-12-05T09:01:26;30.52;;;16.05;;
32321;SDS011;61553;48.994;8.940;2022-12-05T09:03:55;25.52;;;13.23;;
32321;SDS011;61553;48.994;8.940;2022-12-05T09:06:22;25.80;;;12.85;;
32321;SDS011;61553;48.994;8.940;2022-12-05T09:08:52;22.98;;;11.90;;
32321;SDS011;61553;48.994;8.940;2022-12-05T09:11:20;28.15;;;14.02;;
32321;SDS011;61553;48.994;8.940;2022-12-05T09:13:48;30.92;;;15.38;;
32321;SDS011;61553;48.994;8.940;2022-12-05T09:16:18;31.67;;;16.30;;
32321;SDS011;61553;48.994;8.940;2022-12-05T09:18:46;47.40;;;24.05;;
32321;SDS011;61553;48.994;8.940;2022-12-05T09:21:16;38.60;;;17.67;;
32321;SDS011;61553;48.994;8.940;2022-12-05T09:23:47;34.35;;;16.38;;
32321;SDS011;61553;48.994;8.940;2022-12-05T09:26:14;40.33;;;18.73;;
32321;SDS011;61553;48.994;8.940;2022-12-05T09:28:42;30.55;;;14.93;;
32321;SDS011;61553;48.994;8.940;2022-12-05T09:31:09;34.90;;;15.73;;
32321;SDS011;61553;48.994;8.940;2022-12-05T09:33:39;28.48;;;15.35;;
32321;SDS011;61553;48.994;8.940;2022-12-05T09:36:06;29.48;;;15.27;;
32321;SDS011;61553;48.994;8.940;2022-12-05T09:38:33;29.42;;;14.73;;
32321;SDS011;61553;48.994;8.940;2022-12-05T09:41:03;30.52;;;15.10;;
32321;SDS011;61553;48.994;8.940;2022-12-05T09:44:08;27.55;;;13.85;;
32321;SDS011;61553;48.994;8.940;2022-12-05T09:49:21;26.98;;;12.75;;
32321;SDS011;61553;48.994;8.940;2022-12-05T09:51:48;33.35;;;14.52;;
32321;SDS011;61553;48.994;8.940;2022-12-05T09:54:16;27.80;;;14.98;;
32321;SDS011;61553;48.994;8.940;2022-12-05T09:56:42;29.90;;;15.45;;
32321;SDS011;61553;48.994;8.940;2022-12-05T09:59:12;28.45;;;16.00;;
32321;SDS011;61553;48.994;8.940;2022-12-05T10:02:28;30.45;;;16.17;;
32321;SDS011;61553;48.994;8.940;2022-12-05T10:05:05;29.90;;;14.68;;
32321;SDS011;61553;48.994;8.940;2022-12-05T10:07:39;32.40;;;13.93;;
32321;SDS011;61553;48.994;8.940;2022-12-05T10:15:31;32.45;;;14.70;;
32321;SDS011;61553;48.994;8.940;2022-12-05T10:20:56;24.25;;;12.80;;
32321;SDS011;61553;48.994;8.940;2022-12-05T10:23:43;23.83;;;11.90;;
32321;SDS011;61553;48.994;8.940;2022-12-05T10:26:20;21.58;;;10.07;;
32321;SDS011;61553;48.994;8.940;2022-12-05T10:28:50;22.80;;;12.20;;
32321;SDS011;61553;48.994;8.940;2022-12-05T10:31:25;28.05;;;13.80;;
32321;SDS011;61553;48.994;8.940;2022-12-05T10:34:36;26.02;;;13.52;;
32321;SDS011;61553;48.994;8.940;2022-12-05T10:41:46;30.48;;;13.00;;
32321;SDS011;61553;48.994;8.940;2022-12-05T10:44:11;24.15;;;12.73;;
32321;SDS011;61553;48.994;8.940;2022-12-05T10:46:37;25.35;;;12.73;;
32321;SDS011;61553;48.994;8.940;2022-12-05T10:49:07;31.08;;;16.05;;
32321;SDS011;61553;48.994;8.940;2022-12-05T10:51:37;27.52;;;14.57;;
32321;SDS011;61553;48.994;8.940;2022-12-05T10:54:38;24.02;;;13.40;;
32321;SDS011;61553;48.994;8.940;2022-12-05T10:56:56;23.42;;;12.05;;
32321;SDS011;61553;48.994;8.940;2022-12-05T10:59:36;22.95;;;12.00;;
32321;SDS011;61553;48.994;8.940;2022-12-05T11:02:20;23.20;;;12.55;;
32321;SDS011;61553;48.994;8.940;2022-12-05T11:04:54;23.08;;;12.70;;
32321;SDS011;61553;48.994;8.940;2022-12-05T11:08:03;23.65;;;12.52;;
32321;SDS011;61553;48.994;8.940;2022-12-05T11:10:20;23.38;;;13.38;;
32321;SDS011;61553;48.994;8.940;2022-12-05T11:12:49;27.20;;;13.95;;
32321;SDS011;61553;48.994;8.940;2022-12-05T11:17:46;23.95;;;12.98;;
32321;SDS011;61553;48.994;8.940;2022-12-05T11:22:42;26.67;;;14.38;;
32321;SDS011;61553;48.994;8.940;2022-12-05T11:27:52;28.17;;;14.93;;
32321;SDS011;61553;48.994;8.940;2022-12-05T11:30:23;25.90;;;13.02;;
32321;SDS011;61553;48.994;8.940;2022-12-05T11:35:36;24.20;;;12.70;;
32321;SDS011;61553;48.994;8.940;2022-12-05T11:38:03;24.88;;;13.60;;
32321;SDS011;61553;48.994;8.940;2022-12-05T11:58:09;21.10;;;12.43;;
32321;SDS011;61553;48.994;8.940;2022-12-05T12:06:58;20.17;;;12.27;;
32321;SDS011;61553;48.994;8.940;2022-12-05T12:27:24;27.83;;;13.70;;
32321;SDS011;61553;48.994;8.940;2022-12-05T12:40:20;17.48;;;10.15;;
32321;SDS011;61553;48.994;8.940;2022-12-05T12:42:55;18.10;;;10.45;;
32321;SDS011;61553;48.994;8.940;2022-12-05T12:48:04;17.60;;;9.88;;
32321;SDS011;61553;48.994;8.940;2022-12-05T12:50:42;18.02;;;10.52;;
32321;SDS011;61553;48.994;8.940;2022-12-05T12:56:11;60.67;;;24.60;;
32321;SDS011;61553;48.994;8.940;2022-12-05T13:01:38;73.47;;;25.00;;
32321;SDS011;61553;48.994;8.940;2022-12-05T13:04:33;21.00;;;9.88;;
32321;SDS011;61553;48.994;8.940;2022-12-05T13:07:16;17.67;;;9.95;;
32321;SDS011;61553;48.994;8.940;2022-12-05T13:10:10;19.50;;;11.23;;
32321;SDS011;61553;48.994;8.940;2022-12-05T13:12:36;16.73;;;10.40;;
32321;SDS011;61553;48.994;8.940;2022-12-05T13:15:06;17.42;;;10.13;;
32321;SDS011;61553;48.994;8.940;2022-12-05T13:17:38;24.80;;;12.40;;
32321;SDS011;61553;48.994;8.940;2022-12-05T13:20:12;18.70;;;11.10;;
32321;SDS011;61553;48.994;8.940;2022-12-05T13:22:44;17.52;;;10.88;;
32321;SDS011;61553;48.994;8.940;2022-12-05T13:25:14;21.52;;;14.10;;
32321;SDS011;61553;48.994;8.940;2022-12-05T13:27:51;22.92;;;12.63;;
32321;SDS011;61553;48.994;8.940;2022-12-05T13:30:25;17.63;;;10.57;;
32321;SDS011;61553;48.994;8.940;2022-12-05T13:33:08;19.98;;;11.82;;
32321;SDS011;61553;48.994;8.940;2022-12-05T13:35:49;18.48;;;10.55;;
32321;SDS011;61553;48.994;8.940;2022-12-05T13:38:38;20.42;;;10.98;;
32321;SDS011;61553;48.994;8.940;2022-12-05T13:41:40;20.08;;;11.00;;
32321;SDS011;61553;48.994;8.940;2022-12-05T13:46:57;16.77;;;9.70;;
32321;SDS011;61553;48.994;8.940;2022-12-05T13:49:31;19.05;;;9.32;;
32321;SDS011;61553;48.994;8.940;2022-12-05T13:52:13;23.10;;;13.32;;
32321;SDS011;61553;48.994;8.940;2022-12-05T13:54:44;19.03;;;11.43;;
32321;SDS011;61553;48.994;8.940;2022-12-05T14:07:44;17.95;;;10.60;;
32321;SDS011;61553;48.994;8.940;2022-12-05T14:10:15;16.80;;;10.52;;
32321;SDS011;61553;48.994;8.940;2022-12-05T14:12:49;25.30;;;12.77;;
32321;SDS011;61553;48.994;8.940;2022-12-05T14:17:48;44.00;;;18.70;;
32321;SDS011;61553;48.994;8.940;2022-12-05T14:26:07;18.70;;;11.20;;
32321;SDS011;61553;48.994;8.940;2022-12-05T14:34:12;21.17;;;11.88;;
32321;SDS011;61553;48.994;8.940;2022-12-05T14:39:40;18.73;;;10.77;;
32321;SDS011;61553;48.994;8.940;2022-12-05T14:47:56;20.52;;;11.68;;
32321;SDS011;61553;48.994;8.940;2022-12-05T14:50:34;21.23;;;11.85;;
32321;SDS011;61553;48.994;8.940;2022-12-05T14:55:53;19.90;;;11.18;;
32321;SDS011;61553;48.994;8.940;2022-12-05T15:01:22;27.27;;;15.27;;
32321;SDS011;61553;48.994;8.940;2022-12-05T15:06:26;22.67;;;13.05;;
32321;SDS011;61553;48.994;8.940;2022-12-05T15:08:54;22.05;;;13.10;;
32321;SDS011;61553;48.994;8.940;2022-12-05T15:11:22;20.38;;;12.32;;
32321;SDS011;61553;48.994;8.940;2022-12-05T15:14:15;25.42;;;13.93;;
32321;SDS011;61553;48.994;8.940;2022-12-05T15:16:44;21.27;;;12.48;;
32321;SDS011;61553;48.994;8.940;2022-12-05T15:19:57;22.42;;;12.70;;
32321;SDS011;61553;48.994;8.940;2022-12-05T15:22:29;24.73;;;13.75;;
32321;SDS011;61553;48.994;8.940;2022-12-05T15:25:44;34.95;;;18.85;;
32321;SDS011;61553;48.994;8.940;2022-12-05T15:27:54;24.88;;;14.35;;
32321;SDS011;61553;48.994;8.940;2022-12-05T15:30:22;21.02;;;12.25;;
32321;SDS011;61553;48.994;8.940;2022-12-05T15:32:47;18.70;;;11.45;;
32321;SDS011;61553;48.994;8.940;2022-12-05T15:35:13;21.65;;;13.05;;
32321;SDS011;61553;48.994;8.940;2022-12-05T15:37:46;24.83;;;14.77;;
32321;SDS011;61553;48.994;8.940;2022-12-05T15:40:16;21.02;;;12.10;;
32321;SDS011;61553;48.994;8.940;2022-12-05T15:42:46;38.17;;;23.10;;
32321;SDS011;61553;48.994;8.940;2022-12-05T15:50:18;38.10;;;23.70;;
32321;SDS011;61553;48.994;8.940;2022-12-05T15:53:04;32.33;;;19.92;;
32321;SDS011;61553;48.994;8.940;2022-12-05T16:03:42;28.50;;;15.32;;
32321;SDS011;61553;48.994;8.940;2022-12-05T16:06:18;22.30;;;12.63;;
32321;SDS011;61553;48.994;8.940;2022-12-05T16:08:56;26.65;;;12.32;;
32321;SDS011;61553;48.994;8.940;2022-12-05T16:11:23;20.95;;;11.50;;
32321;SDS011;61553;48.994;8.940;2022-12-05T16:13:50;20.88;;;12.38;;
32321;SDS011;61553;48.994;8.940;2022-12-05T16:16:22;60.80;;;27.63;;
32321;SDS011;61553;48.994;8.940;2022-12-05T16:18:53;25.73;;;13.68;;
32321;SDS011;61553;48.994;8.940;2022-12-05T16:21:34;21.05;;;12.07;;
32321;SDS011;61553;48.994;8.940;2022-12-05T16:24:05;22.35;;;13.77;;
32321;SDS011;61553;48.994;8.940;2022-12-05T16:26:37;23.05;;;14.07;;
32321;SDS011;61553;48.994;8.940;2022-12-05T16:29:04;21.13;;;13.40;;
32321;SDS011;61553;48.994;8.940;2022-12-05T16:31:30;23.10;;;13.23;;
32321;SDS011;61553;48.994;8.940;2022-12-05T16:34:01;25.67;;;13.82;;
32321;SDS011;61553;48.994;8.940;2022-12-05T16:36:29;25.08;;;13.80;;
32321;SDS011;61553;48.994;8.940;2022-12-05T16:38:59;25.33;;;13.48;;
32321;SDS011;61553;48.994;8.940;2022-12-05T16:41:36;37.70;;;17.88;;
32321;SDS011;61553;48.994;8.940;2022-12-05T16:44:04;37.67;;;18.02;;
32321;SDS011;61553;48.994;8.940;2022-12-05T16:46:50;23.73;;;12.70;;
32321;SDS011;61553;48.994;8.940;2022-12-05T16:51:58;21.17;;;11.95;;
32321;SDS011;61553;48.994;8.940;2022-12-05T16:54:24;20.67;;;11.25;;
32321;SDS011;61553;48.994;8.940;2022-12-05T16:56:50;45.53;;;24.38;;
32321;SDS011;61553;48.994;8.940;2022-12-05T16:59:23;74.35;;;36.03;;
32321;SDS011;61553;48.994;8.940;2022-12-05T17:01:54;68.50;;;31.85;;
32321;SDS011;61553;48.994;8.940;2022-12-05T17:04:19;47.53;;;25.58;;
32321;SDS011;61553;48.994;8.940;2022-12-05T17:06:45;39.17;;;22.05;;
32321;SDS011;61553;48.994;8.940;2022-12-05T17:09:10;33.72;;;18.30;;
32321;SDS011;61553;48.994;8.940;2022-12-05T17:11:37;31.92;;;14.75;;
32321;SDS011;61553;48.994;8.940;2022-12-05T17:14:05;32.00;;;17.27;;
32321;SDS011;61553;48.994;8.940;2022-12-05T17:16:37;25.27;;;14.25;;
32321;SDS011;61553;48.994;8.940;2022-12-05T17:19:02;32.83;;;17.05;;
32321;SDS011;61553;48.994;8.940;2022-12-05T17:21:29;85.38;;;39.78;;
32321;SDS011;61553;48.994;8.940;2022-12-05T17:23:56;45.83;;;20.35;;
32321;SDS011;61553;48.994;8.940;2022-12-05T17:26:22;185.45;;;67.28;;
32321;SDS011;61553;48.994;8.940;2022-12-05T17:28:48;307.33;;;112.20;;
32321;SDS011;61553;48.994;8.940;2022-12-05T17:31:15;327.95;;;118.40;;
32321;SDS011;61553;48.994;8.940;2022-12-05T17:33:42;365.05;;;133.23;;
32321;SDS011;61553;48.994;8.940;2022-12-05T17:36:09;333.48;;;109.40;;
32321;SDS011;61553;48.994;8.940;2022-12-05T17:38:34;189.25;;;78.57;;
32321;SDS011;61553;48.994;8.940;2022-12-05T17:41:00;76.78;;;43.97;;